sensor_id;sensor_type;location;lat;lon;timestamp;temperature;humidity
2751;DHT22;1383;48.362;10.908;2023-03-23T00:00:06;11.30;40.00
2751;DHT22;1383;48.362;10.908;2023-03-23T00:02:32;11.20;39.90
2751;DHT22;1383;48.362;10.908;2023-03-23T00:05:07;11.20;40.30
2751;DHT22;1383;48.362;10.908;2023-03-23T00:07:34;11.20;40.50
2751;DHT22;1383;48.362;10.908;2023-03-23T00:10:00;11.20;40.40
2751;DHT22;1383;48.362;10.908;2023-03-23T00:12:30;11.30;40.50
2751;DHT22;1383;48.362;10.908;2023-03-23T00:15:03;11.30;40.40
2751;DHT22;1383;48.362;10.908;2023-03-23T00:17:31;11.30;40.50
2751;DHT22;1383;48.362;10.908;2023-03-23T00:19:59;11.30;40.60
2751;DHT22;1383;48.362;10.908;2023-03-23T00:22:27;11.30;40.50
2751;DHT22;1383;48.362;10.908;2023-03-23T00:24:54;11.40;40.60
2751;DHT22;1383;48.362;10.908;2023-03-23T00:27:20;11.40;40.40
2751;DHT22;1383;48.362;10.908;2023-03-23T00:29:50;11.40;40.40
2751;DHT22;1383;48.362;10.908;2023-03-23T00:32:23;11.30;40.60
2751;DHT22;1383;48.362;10.908;2023-03-23T00:34:53;11.40;41.20
2751;DHT22;1383;48.362;10.908;2023-03-23T00:37:19;11.40;40.70
2751;DHT22;1383;48.362;10.908;2023-03-23T00:39:45;11.40;40.50
2751;DHT22;1383;48.362;10.908;2023-03-23T00:42:15;11.30;40.60
2751;DHT22;1383;48.362;10.908;2023-03-23T00:44:42;11.40;40.60
2751;DHT22;1383;48.362;10.908;2023-03-23T00:47:10;11.40;40.60
2751;DHT22;1383;48.362;10.908;2023-03-23T00:49:37;11.30;40.70
2751;DHT22;1383;48.362;10.908;2023-03-23T00:52:04;11.30;40.90
2751;DHT22;1383;48.362;10.908;2023-03-23T00:54:31;11.20;41.40
2751;DHT22;1383;48.362;10.908;2023-03-23T00:56:57;11.20;41.70
2751;DHT22;1383;48.362;10.908;2023-03-23T00:59:23;11.30;41.80
2751;DHT22;1383;48.362;10.908;2023-03-23T01:01:49;11.20;41.80
2751;DHT22;1383;48.362;10.908;2023-03-23T01:04:15;11.20;42.00
2751;DHT22;1383;48.362;10.908;2023-03-23T01:06:43;11.20;42.10
2751;DHT22;1383;48.362;10.908;2023-03-23T01:09:15;11.10;43.00
2751;DHT22;1383;48.362;10.908;2023-03-23T01:11:43;11.00;42.70
2751;DHT22;1383;48.362;10.908;2023-03-23T01:14:10;10.90;43.10
2751;DHT22;1383;48.362;10.908;2023-03-23T01:16:36;10.90;43.60
2751;DHT22;1383;48.362;10.908;2023-03-23T01:19:02;10.90;43.60
2751;DHT22;1383;48.362;10.908;2023-03-23T01:21:28;10.90;43.90
2751;DHT22;1383;48.362;10.908;2023-03-23T01:23:53;10.90;43.90
2751;DHT22;1383;48.362;10.908;2023-03-23T01:26:21;10.90;43.90
2751;DHT22;1383;48.362;10.908;2023-03-23T01:28:47;10.90;44.10
2751;DHT22;1383;48.362;10.908;2023-03-23T01:31:16;10.90;44.40
2751;DHT22;1383;48.362;10.908;2023-03-23T01:33:42;10.90;44.60
2751;DHT22;1383;48.362;10.908;2023-03-23T01:36:17;10.80;44.60
2751;DHT22;1383;48.362;10.908;2023-03-23T01:38:44;10.90;44.70
2751;DHT22;1383;48.362;10.908;2023-03-23T01:41:11;11.00;44.70
2751;DHT22;1383;48.362;10.908;2023-03-23T01:44:00;11.00;44.70
2751;DHT22;1383;48.362;10.908;2023-03-23T01:46:38;11.00;44.70
2751;DHT22;1383;48.362;10.908;2023-03-23T01:49:25;11.00;44.80
2751;DHT22;1383;48.362;10.908;2023-03-23T01:52:30;11.00;45.00
2751;DHT22;1383;48.362;10.908;2023-03-23T01:54:52;11.00;45.00
2751;DHT22;1383;48.362;10.908;2023-03-23T01:57:22;11.00;45.20
2751;DHT22;1383;48.362;10.908;2023-03-23T01:59:51;11.00;45.10
2751;DHT22;1383;48.362;10.908;2023-03-23T02:02:20;11.10;45.00
2751;DHT22;1383;48.362;10.908;2023-03-23T02:04:46;11.00;45.00
2751;DHT22;1383;48.362;10.908;2023-03-23T02:07:14;11.00;45.50
2751;DHT22;1383;48.362;10.908;2023-03-23T02:09:40;11.00;45.30
2751;DHT22;1383;48.362;10.908;2023-03-23T02:12:06;11.00;45.50
2751;DHT22;1383;48.362;10.908;2023-03-23T02:14:32;11.10;45.70
2751;DHT22;1383;48.362;10.908;2023-03-23T02:17:14;11.00;45.70
2751;DHT22;1383;48.362;10.908;2023-03-23T02:34:09;11.00;47.00
2751;DHT22;1383;48.362;10.908;2023-03-23T02:37:11;11.10;46.90
2751;DHT22;1383;48.362;10.908;2023-03-23T02:39:56;11.10;46.70
2751;DHT22;1383;48.362;10.908;2023-03-23T02:42:27;11.10;47.00
2751;DHT22;1383;48.362;10.908;2023-03-23T02:44:54;11.20;46.90
2751;DHT22;1383;48.362;10.908;2023-03-23T02:47:24;11.20;46.80
2751;DHT22;1383;48.362;10.908;2023-03-23T02:49:52;11.20;46.70
2751;DHT22;1383;48.362;10.908;2023-03-23T02:52:26;11.20;46.70
2751;DHT22;1383;48.362;10.908;2023-03-23T02:54:54;11.30;47.10
2751;DHT22;1383;48.362;10.908;2023-03-23T02:57:22;11.20;47.20
2751;DHT22;1383;48.362;10.908;2023-03-23T02:59:48;11.20;47.30
2751;DHT22;1383;48.362;10.908;2023-03-23T03:02:17;11.20;47.50
2751;DHT22;1383;48.362;10.908;2023-03-23T03:04:52;11.20;47.40
2751;DHT22;1383;48.362;10.908;2023-03-23T03:10:33;11.20;47.70
2751;DHT22;1383;48.362;10.908;2023-03-23T03:15:37;11.10;47.90
2751;DHT22;1383;48.362;10.908;2023-03-23T03:21:08;11.10;48.20
2751;DHT22;1383;48.362;10.908;2023-03-23T03:23:39;11.20;48.00
2751;DHT22;1383;48.362;10.908;2023-03-23T03:26:10;11.20;47.90
2751;DHT22;1383;48.362;10.908;2023-03-23T03:28:37;11.30;48.60
2751;DHT22;1383;48.362;10.908;2023-03-23T03:31:04;11.30;47.80
2751;DHT22;1383;48.362;10.908;2023-03-23T03:33:31;11.30;47.70
2751;DHT22;1383;48.362;10.908;2023-03-23T03:36:01;11.30;47.60
2751;DHT22;1383;48.362;10.908;2023-03-23T03:38:28;11.30;47.70
2751;DHT22;1383;48.362;10.908;2023-03-23T03:40:55;11.30;48.00
2751;DHT22;1383;48.362;10.908;2023-03-23T03:43:21;11.20;48.20
2751;DHT22;1383;48.362;10.908;2023-03-23T03:45:47;11.10;48.50
2751;DHT22;1383;48.362;10.908;2023-03-23T03:48:13;11.20;48.40
2751;DHT22;1383;48.362;10.908;2023-03-23T03:50:39;11.30;48.30
2751;DHT22;1383;48.362;10.908;2023-03-23T03:53:05;11.30;47.90
2751;DHT22;1383;48.362;10.908;2023-03-23T03:55:32;11.30;47.80
2751;DHT22;1383;48.362;10.908;2023-03-23T03:58:01;11.30;47.80
2751;DHT22;1383;48.362;10.908;2023-03-23T04:00:28;11.30;47.80
2751;DHT22;1383;48.362;10.908;2023-03-23T04:02:54;11.30;47.60
2751;DHT22;1383;48.362;10.908;2023-03-23T04:05:21;11.40;47.80
2751;DHT22;1383;48.362;10.908;2023-03-23T04:07:48;11.40;47.80
2751;DHT22;1383;48.362;10.908;2023-03-23T04:10:19;11.40;48.30
2751;DHT22;1383;48.362;10.908;2023-03-23T04:12:50;11.20;50.30
2751;DHT22;1383;48.362;10.908;2023-03-23T04:15:16;11.30;51.70
2751;DHT22;1383;48.362;10.908;2023-03-23T04:17:41;11.20;52.10
2751;DHT22;1383;48.362;10.908;2023-03-23T04:20:09;11.20;52.90
2751;DHT22;1383;48.362;10.908;2023-03-23T04:22:47;11.30;53.20
2751;DHT22;1383;48.362;10.908;2023-03-23T04:25:16;11.30;53.40
2751;DHT22;1383;48.362;10.908;2023-03-23T04:27:43;11.10;53.70
2751;DHT22;1383;48.362;10.908;2023-03-23T04:30:10;11.20;55.50
2751;DHT22;1383;48.362;10.908;2023-03-23T04:32:37;11.10;56.10
2751;DHT22;1383;48.362;10.908;2023-03-23T04:35:06;11.20;56.30
2751;DHT22;1383;48.362;10.908;2023-03-23T04:37:32;11.10;56.60
2751;DHT22;1383;48.362;10.908;2023-03-23T04:39:58;11.10;57.40
2751;DHT22;1383;48.362;10.908;2023-03-23T04:42:31;11.10;57.40
2751;DHT22;1383;48.362;10.908;2023-03-23T04:44:57;11.10;57.50
2751;DHT22;1383;48.362;10.908;2023-03-23T04:47:25;11.00;58.40
2751;DHT22;1383;48.362;10.908;2023-03-23T04:49:58;11.00;58.30
2751;DHT22;1383;48.362;10.908;2023-03-23T04:52:27;11.00;59.00
2751;DHT22;1383;48.362;10.908;2023-03-23T04:54:57;10.90;59.30
2751;DHT22;1383;48.362;10.908;2023-03-23T04:57:23;10.90;59.20
2751;DHT22;1383;48.362;10.908;2023-03-23T04:59:49;11.00;59.30
2751;DHT22;1383;48.362;10.908;2023-03-23T05:02:14;11.10;59.10
2751;DHT22;1383;48.362;10.908;2023-03-23T05:04:42;11.10;58.30
2751;DHT22;1383;48.362;10.908;2023-03-23T05:07:08;11.10;57.30
2751;DHT22;1383;48.362;10.908;2023-03-23T05:09:34;11.10;57.30
2751;DHT22;1383;48.362;10.908;2023-03-23T05:12:08;11.00;57.80
2751;DHT22;1383;48.362;10.908;2023-03-23T05:14:35;11.00;58.10
2751;DHT22;1383;48.362;10.908;2023-03-23T05:17:01;11.00;57.30
2751;DHT22;1383;48.362;10.908;2023-03-23T05:19:27;11.00;58.10
2751;DHT22;1383;48.362;10.908;2023-03-23T05:21:56;11.00;57.60
2751;DHT22;1383;48.362;10.908;2023-03-23T05:24:22;10.90;58.30
2751;DHT22;1383;48.362;10.908;2023-03-23T05:26:49;10.80;57.80
2751;DHT22;1383;48.362;10.908;2023-03-23T05:29:18;10.80;57.80
2751;DHT22;1383;48.362;10.908;2023-03-23T05:31:43;10.90;57.10
2751;DHT22;1383;48.362;10.908;2023-03-23T05:34:09;10.90;56.50
2751;DHT22;1383;48.362;10.908;2023-03-23T05:36:37;11.00;55.90
2751;DHT22;1383;48.362;10.908;2023-03-23T05:39:03;11.10;55.50
2751;DHT22;1383;48.362;10.908;2023-03-23T05:41:29;11.10;54.80
2751;DHT22;1383;48.362;10.908;2023-03-23T05:43:55;11.20;54.80
2751;DHT22;1383;48.362;10.908;2023-03-23T05:46:20;11.20;54.50
2751;DHT22;1383;48.362;10.908;2023-03-23T05:48:46;11.30;54.80
2751;DHT22;1383;48.362;10.908;2023-03-23T05:51:12;11.30;54.20
2751;DHT22;1383;48.362;10.908;2023-03-23T05:53:38;11.30;53.50
2751;DHT22;1383;48.362;10.908;2023-03-23T05:56:04;11.40;53.20
2751;DHT22;1383;48.362;10.908;2023-03-23T05:58:29;11.50;51.60
2751;DHT22;1383;48.362;10.908;2023-03-23T06:00:56;11.60;51.00
2751;DHT22;1383;48.362;10.908;2023-03-23T06:03:21;11.70;50.20
2751;DHT22;1383;48.362;10.908;2023-03-23T06:05:48;11.70;49.10
2751;DHT22;1383;48.362;10.908;2023-03-23T06:08:14;11.80;48.50
2751;DHT22;1383;48.362;10.908;2023-03-23T06:10:40;11.90;48.50
2751;DHT22;1383;48.362;10.908;2023-03-23T06:13:05;12.00;48.30
2751;DHT22;1383;48.362;10.908;2023-03-23T06:15:31;12.10;48.00
2751;DHT22;1383;48.362;10.908;2023-03-23T06:18:03;12.20;47.30
2751;DHT22;1383;48.362;10.908;2023-03-23T06:20:29;12.30;47.20
2751;DHT22;1383;48.362;10.908;2023-03-23T06:22:55;12.30;46.90
2751;DHT22;1383;48.362;10.908;2023-03-23T06:25:23;12.30;46.20
2751;DHT22;1383;48.362;10.908;2023-03-23T06:27:50;12.40;46.50
2751;DHT22;1383;48.362;10.908;2023-03-23T06:30:18;12.40;46.20
2751;DHT22;1383;48.362;10.908;2023-03-23T06:32:44;12.50;46.10
2751;DHT22;1383;48.362;10.908;2023-03-23T06:35:13;12.60;46.10
2751;DHT22;1383;48.362;10.908;2023-03-23T06:37:39;12.70;45.50
2751;DHT22;1383;48.362;10.908;2023-03-23T06:40:05;12.80;45.60
2751;DHT22;1383;48.362;10.908;2023-03-23T06:42:32;12.90;45.30
2751;DHT22;1383;48.362;10.908;2023-03-23T06:44:58;13.00;45.70
2751;DHT22;1383;48.362;10.908;2023-03-23T06:47:26;12.90;45.00
2751;DHT22;1383;48.362;10.908;2023-03-23T06:49:54;12.90;45.10
2751;DHT22;1383;48.362;10.908;2023-03-23T06:52:20;12.90;44.70
2751;DHT22;1383;48.362;10.908;2023-03-23T06:54:48;12.90;45.10
2751;DHT22;1383;48.362;10.908;2023-03-23T06:57:14;12.90;45.10
2751;DHT22;1383;48.362;10.908;2023-03-23T06:59:40;12.90;44.90
2751;DHT22;1383;48.362;10.908;2023-03-23T07:02:09;12.90;44.30
2751;DHT22;1383;48.362;10.908;2023-03-23T07:04:35;12.90;44.20
2751;DHT22;1383;48.362;10.908;2023-03-23T07:07:01;13.00;44.10
2751;DHT22;1383;48.362;10.908;2023-03-23T07:09:27;13.00;43.90
2751;DHT22;1383;48.362;10.908;2023-03-23T07:11:52;13.00;44.20
2751;DHT22;1383;48.362;10.908;2023-03-23T07:14:19;13.10;44.20
2751;DHT22;1383;48.362;10.908;2023-03-23T07:16:44;13.10;43.30
2751;DHT22;1383;48.362;10.908;2023-03-23T07:19:11;13.20;43.70
2751;DHT22;1383;48.362;10.908;2023-03-23T07:21:37;13.40;43.10
2751;DHT22;1383;48.362;10.908;2023-03-23T07:24:03;13.40;42.50
2751;DHT22;1383;48.362;10.908;2023-03-23T07:26:28;13.40;42.20
2751;DHT22;1383;48.362;10.908;2023-03-23T07:28:54;13.40;41.60
2751;DHT22;1383;48.362;10.908;2023-03-23T07:31:20;13.50;41.90
2751;DHT22;1383;48.362;10.908;2023-03-23T07:33:46;13.50;42.20
2751;DHT22;1383;48.362;10.908;2023-03-23T07:36:11;13.60;41.90
2751;DHT22;1383;48.362;10.908;2023-03-23T07:38:37;13.80;42.10
2751;DHT22;1383;48.362;10.908;2023-03-23T07:41:05;13.90;41.60
2751;DHT22;1383;48.362;10.908;2023-03-23T07:43:30;14.10;41.10
2751;DHT22;1383;48.362;10.908;2023-03-23T07:45:57;14.30;41.20
2751;DHT22;1383;48.362;10.908;2023-03-23T07:48:23;14.40;41.00
2751;DHT22;1383;48.362;10.908;2023-03-23T07:50:49;14.50;39.80
2751;DHT22;1383;48.362;10.908;2023-03-23T07:53:14;14.50;39.40
2751;DHT22;1383;48.362;10.908;2023-03-23T07:55:41;14.50;39.10
2751;DHT22;1383;48.362;10.908;2023-03-23T07:58:06;14.50;38.50
2751;DHT22;1383;48.362;10.908;2023-03-23T08:00:32;14.50;38.20
2751;DHT22;1383;48.362;10.908;2023-03-23T08:02:58;14.60;38.00
2751;DHT22;1383;48.362;10.908;2023-03-23T08:05:25;14.60;38.00
2751;DHT22;1383;48.362;10.908;2023-03-23T08:07:53;14.70;38.10
2751;DHT22;1383;48.362;10.908;2023-03-23T08:10:23;14.90;37.60
2751;DHT22;1383;48.362;10.908;2023-03-23T08:12:52;15.00;37.00
2751;DHT22;1383;48.362;10.908;2023-03-23T08:15:19;15.20;36.90
2751;DHT22;1383;48.362;10.908;2023-03-23T08:17:47;15.40;36.00
2751;DHT22;1383;48.362;10.908;2023-03-23T08:20:13;15.60;35.80
2751;DHT22;1383;48.362;10.908;2023-03-23T08:22:40;15.70;35.30
2751;DHT22;1383;48.362;10.908;2023-03-23T08:25:07;15.80;35.60
2751;DHT22;1383;48.362;10.908;2023-03-23T08:27:33;15.90;34.50
2751;DHT22;1383;48.362;10.908;2023-03-23T08:29:59;16.10;34.50
2751;DHT22;1383;48.362;10.908;2023-03-23T08:32:25;16.10;34.60
2751;DHT22;1383;48.362;10.908;2023-03-23T08:34:51;16.30;34.80
2751;DHT22;1383;48.362;10.908;2023-03-23T08:37:17;16.60;33.40
2751;DHT22;1383;48.362;10.908;2023-03-23T08:39:43;16.70;33.00
2751;DHT22;1383;48.362;10.908;2023-03-23T08:42:09;16.90;32.30
2751;DHT22;1383;48.362;10.908;2023-03-23T08:44:35;17.10;30.80
2751;DHT22;1383;48.362;10.908;2023-03-23T08:47:02;17.30;30.20
2751;DHT22;1383;48.362;10.908;2023-03-23T08:49:30;17.50;30.00
2751;DHT22;1383;48.362;10.908;2023-03-23T08:51:58;17.50;28.50
2751;DHT22;1383;48.362;10.908;2023-03-23T08:54:25;17.50;28.10
2751;DHT22;1383;48.362;10.908;2023-03-23T08:56:52;17.50;27.50
2751;DHT22;1383;48.362;10.908;2023-03-23T08:59:18;17.50;27.50
2751;DHT22;1383;48.362;10.908;2023-03-23T09:01:43;17.60;26.90
2751;DHT22;1383;48.362;10.908;2023-03-23T09:04:09;17.70;26.50
2751;DHT22;1383;48.362;10.908;2023-03-23T09:06:36;17.70;25.80
2751;DHT22;1383;48.362;10.908;2023-03-23T09:09:03;17.70;26.00
2751;DHT22;1383;48.362;10.908;2023-03-23T09:11:33;17.80;25.90
2751;DHT22;1383;48.362;10.908;2023-03-23T09:14:00;17.90;25.90
2751;DHT22;1383;48.362;10.908;2023-03-23T09:16:26;17.80;25.90
2751;DHT22;1383;48.362;10.908;2023-03-23T09:18:53;17.80;25.30
2751;DHT22;1383;48.362;10.908;2023-03-23T09:21:21;17.70;25.60
2751;DHT22;1383;48.362;10.908;2023-03-23T09:23:47;17.80;25.70
2751;DHT22;1383;48.362;10.908;2023-03-23T09:26:14;17.90;25.70
2751;DHT22;1383;48.362;10.908;2023-03-23T09:28:40;17.90;25.10
2751;DHT22;1383;48.362;10.908;2023-03-23T09:31:05;17.90;25.40
2751;DHT22;1383;48.362;10.908;2023-03-23T09:33:31;17.90;25.50
2751;DHT22;1383;48.362;10.908;2023-03-23T09:36:00;18.00;25.20
2751;DHT22;1383;48.362;10.908;2023-03-23T09:38:28;18.10;25.20
2751;DHT22;1383;48.362;10.908;2023-03-23T09:46:30;18.20;25.20
2751;DHT22;1383;48.362;10.908;2023-03-23T09:49:11;18.20;24.90
2751;DHT22;1383;48.362;10.908;2023-03-23T09:51:49;18.20;25.10
2751;DHT22;1383;48.362;10.908;2023-03-23T09:54:21;18.20;25.20
2751;DHT22;1383;48.362;10.908;2023-03-23T09:56:49;18.20;25.40
2751;DHT22;1383;48.362;10.908;2023-03-23T09:59:35;18.20;25.20
2751;DHT22;1383;48.362;10.908;2023-03-23T10:02:13;18.10;25.30
2751;DHT22;1383;48.362;10.908;2023-03-23T10:04:51;18.10;25.30
2751;DHT22;1383;48.362;10.908;2023-03-23T10:07:23;18.10;25.30
2751;DHT22;1383;48.362;10.908;2023-03-23T10:10:01;18.10;25.60
2751;DHT22;1383;48.362;10.908;2023-03-23T10:15:10;18.20;25.90
2751;DHT22;1383;48.362;10.908;2023-03-23T10:18:04;18.20;25.80
2751;DHT22;1383;48.362;10.908;2023-03-23T10:20:40;18.20;25.70
2751;DHT22;1383;48.362;10.908;2023-03-23T10:28:52;18.20;25.70
2751;DHT22;1383;48.362;10.908;2023-03-23T10:31:24;18.20;25.60
2751;DHT22;1383;48.362;10.908;2023-03-23T10:33:53;18.30;25.60
2751;DHT22;1383;48.362;10.908;2023-03-23T10:36:37;18.30;25.80
2751;DHT22;1383;48.362;10.908;2023-03-23T10:39:13;18.30;25.50
2751;DHT22;1383;48.362;10.908;2023-03-23T10:41:41;18.40;25.70
2751;DHT22;1383;48.362;10.908;2023-03-23T10:44:25;18.60;25.60
2751;DHT22;1383;48.362;10.908;2023-03-23T10:46:58;18.80;25.40
2751;DHT22;1383;48.362;10.908;2023-03-23T10:49:28;18.90;25.20
2751;DHT22;1383;48.362;10.908;2023-03-23T10:54:46;19.20;24.60
2751;DHT22;1383;48.362;10.908;2023-03-23T10:57:27;19.20;24.80
2751;DHT22;1383;48.362;10.908;2023-03-23T11:02:27;19.60;24.50
2751;DHT22;1383;48.362;10.908;2023-03-23T11:04:57;19.70;24.50
2751;DHT22;1383;48.362;10.908;2023-03-23T11:07:28;19.70;24.70
2751;DHT22;1383;48.362;10.908;2023-03-23T11:09:57;19.70;24.50
2751;DHT22;1383;48.362;10.908;2023-03-23T11:12:24;19.80;24.50
2751;DHT22;1383;48.362;10.908;2023-03-23T11:14:51;19.90;24.50
2751;DHT22;1383;48.362;10.908;2023-03-23T11:17:26;19.90;24.90
2751;DHT22;1383;48.362;10.908;2023-03-23T11:19:53;19.90;24.30
2751;DHT22;1383;48.362;10.908;2023-03-23T11:22:31;19.90;24.10
2751;DHT22;1383;48.362;10.908;2023-03-23T11:25:04;19.90;24.20
2751;DHT22;1383;48.362;10.908;2023-03-23T11:27:30;19.90;24.20
2751;DHT22;1383;48.362;10.908;2023-03-23T11:30:08;19.90;24.20
2751;DHT22;1383;48.362;10.908;2023-03-23T11:32:35;19.90;24.00
2751;DHT22;1383;48.362;10.908;2023-03-23T11:35:04;19.90;24.20
2751;DHT22;1383;48.362;10.908;2023-03-23T11:37:42;19.80;23.90
2751;DHT22;1383;48.362;10.908;2023-03-23T11:42:48;19.90;23.70
2751;DHT22;1383;48.362;10.908;2023-03-23T11:45:21;20.00;23.90
2751;DHT22;1383;48.362;10.908;2023-03-23T11:50:33;20.20;24.00
2751;DHT22;1383;48.362;10.908;2023-03-23T11:58:23;20.20;23.70
2751;DHT22;1383;48.362;10.908;2023-03-23T12:00:55;20.10;23.90
2751;DHT22;1383;48.362;10.908;2023-03-23T12:03:23;20.00;24.20
2751;DHT22;1383;48.362;10.908;2023-03-23T12:14:13;19.80;23.70
2751;DHT22;1383;48.362;10.908;2023-03-23T12:33:04;19.30;24.50
2751;DHT22;1383;48.362;10.908;2023-03-23T12:39:10;19.30;24.70
2751;DHT22;1383;48.362;10.908;2023-03-23T12:41:35;19.30;25.30
2751;DHT22;1383;48.362;10.908;2023-03-23T12:44:07;19.30;24.70
2751;DHT22;1383;48.362;10.908;2023-03-23T12:49:21;19.30;24.70
2751;DHT22;1383;48.362;10.908;2023-03-23T12:51:59;19.30;24.70
2751;DHT22;1383;48.362;10.908;2023-03-23T12:54:40;19.20;24.80
2751;DHT22;1383;48.362;10.908;2023-03-23T12:57:23;19.30;24.90
2751;DHT22;1383;48.362;10.908;2023-03-23T13:03:01;19.30;24.90
2751;DHT22;1383;48.362;10.908;2023-03-23T13:05:35;19.30;24.70
2751;DHT22;1383;48.362;10.908;2023-03-23T13:08:24;19.40;24.90
2751;DHT22;1383;48.362;10.908;2023-03-23T13:10:56;19.40;24.80
2751;DHT22;1383;48.362;10.908;2023-03-23T13:13:39;19.40;24.80
2751;DHT22;1383;48.362;10.908;2023-03-23T13:16:23;19.30;25.00
2751;DHT22;1383;48.362;10.908;2023-03-23T13:21:23;19.40;25.10
2751;DHT22;1383;48.362;10.908;2023-03-23T13:23:59;19.50;24.90
2751;DHT22;1383;48.362;10.908;2023-03-23T13:26:26;19.50;25.00
2751;DHT22;1383;48.362;10.908;2023-03-23T13:29:21;19.50;25.00
2751;DHT22;1383;48.362;10.908;2023-03-23T13:31:50;19.50;25.60
2751;DHT22;1383;48.362;10.908;2023-03-23T13:34:23;19.70;25.10
2751;DHT22;1383;48.362;10.908;2023-03-23T13:37:01;19.80;25.00
2751;DHT22;1383;48.362;10.908;2023-03-23T13:42:22;19.90;24.70
2751;DHT22;1383;48.362;10.908;2023-03-23T13:47:40;19.80;24.90
2751;DHT22;1383;48.362;10.908;2023-03-23T14:08:44;19.60;24.20
2751;DHT22;1383;48.362;10.908;2023-03-23T14:11:12;19.50;24.40
2751;DHT22;1383;48.362;10.908;2023-03-23T14:18:48;19.20;24.90
2751;DHT22;1383;48.362;10.908;2023-03-23T14:21:17;19.00;25.50
2751;DHT22;1383;48.362;10.908;2023-03-23T14:23:42;19.00;25.70
2751;DHT22;1383;48.362;10.908;2023-03-23T14:26:15;19.00;26.10
2751;DHT22;1383;48.362;10.908;2023-03-23T14:28:45;19.00;26.40
2751;DHT22;1383;48.362;10.908;2023-03-23T14:31:18;18.90;25.70
2751;DHT22;1383;48.362;10.908;2023-03-23T14:33:44;18.80;25.70
2751;DHT22;1383;48.362;10.908;2023-03-23T14:36:10;18.70;25.50
2751;DHT22;1383;48.362;10.908;2023-03-23T14:38:36;18.70;25.90
2751;DHT22;1383;48.362;10.908;2023-03-23T14:41:05;18.60;25.70
2751;DHT22;1383;48.362;10.908;2023-03-23T14:43:33;18.50;26.00
2751;DHT22;1383;48.362;10.908;2023-03-23T14:46:01;18.50;26.10
2751;DHT22;1383;48.362;10.908;2023-03-23T14:48:30;18.40;26.20
2751;DHT22;1383;48.362;10.908;2023-03-23T14:50:58;18.60;26.20
2751;DHT22;1383;48.362;10.908;2023-03-23T14:53:29;18.50;26.10
2751;DHT22;1383;48.362;10.908;2023-03-23T14:56:01;18.40;26.10
2751;DHT22;1383;48.362;10.908;2023-03-23T14:58:28;18.30;26.20
2751;DHT22;1383;48.362;10.908;2023-03-23T15:01:04;18.30;26.20
2751;DHT22;1383;48.362;10.908;2023-03-23T15:03:35;18.20;26.40
2751;DHT22;1383;48.362;10.908;2023-03-23T15:06:05;18.10;26.60
2751;DHT22;1383;48.362;10.908;2023-03-23T15:08:33;18.00;26.70
2751;DHT22;1383;48.362;10.908;2023-03-23T15:13:28;18.00;27.20
2751;DHT22;1383;48.362;10.908;2023-03-23T15:16:06;18.00;27.60
2751;DHT22;1383;48.362;10.908;2023-03-23T15:18:36;18.10;28.10
2751;DHT22;1383;48.362;10.908;2023-03-23T15:21:18;18.00;28.90
2751;DHT22;1383;48.362;10.908;2023-03-23T15:23:45;18.00;29.00
2751;DHT22;1383;48.362;10.908;2023-03-23T15:27:09;17.90;29.70
2751;DHT22;1383;48.362;10.908;2023-03-23T15:31:47;17.70;29.30
2751;DHT22;1383;48.362;10.908;2023-03-23T15:37:01;17.60;29.00
2751;DHT22;1383;48.362;10.908;2023-03-23T15:39:28;17.60;28.90
2751;DHT22;1383;48.362;10.908;2023-03-23T15:41:54;17.70;29.00
2751;DHT22;1383;48.362;10.908;2023-03-23T15:44:26;17.60;29.50
2751;DHT22;1383;48.362;10.908;2023-03-23T15:47:14;17.60;29.10
2751;DHT22;1383;48.362;10.908;2023-03-23T15:49:42;17.50;29.30
2751;DHT22;1383;48.362;10.908;2023-03-23T15:52:12;17.50;29.50
2751;DHT22;1383;48.362;10.908;2023-03-23T15:54:38;17.40;29.50
2751;DHT22;1383;48.362;10.908;2023-03-23T15:57:04;17.40;29.70
2751;DHT22;1383;48.362;10.908;2023-03-23T15:59:30;17.30;30.00
2751;DHT22;1383;48.362;10.908;2023-03-23T16:01:57;17.20;30.80
2751;DHT22;1383;48.362;10.908;2023-03-23T16:04:24;17.10;30.30
2751;DHT22;1383;48.362;10.908;2023-03-23T16:06:54;17.10;30.60
2751;DHT22;1383;48.362;10.908;2023-03-23T16:09:21;17.00;30.70
2751;DHT22;1383;48.362;10.908;2023-03-23T16:11:48;17.10;30.80
2751;DHT22;1383;48.362;10.908;2023-03-23T16:14:15;17.10;30.70
2751;DHT22;1383;48.362;10.908;2023-03-23T16:16:49;17.10;30.80
2751;DHT22;1383;48.362;10.908;2023-03-23T16:19:18;17.10;30.90
2751;DHT22;1383;48.362;10.908;2023-03-23T16:21:50;17.10;30.80
2751;DHT22;1383;48.362;10.908;2023-03-23T16:24:16;17.20;30.90
2751;DHT22;1383;48.362;10.908;2023-03-23T16:26:44;17.10;30.80
2751;DHT22;1383;48.362;10.908;2023-03-23T16:29:14;17.10;30.90
2751;DHT22;1383;48.362;10.908;2023-03-23T16:32:01;17.10;30.80
2751;DHT22;1383;48.362;10.908;2023-03-23T16:34:28;17.10;31.00
2751;DHT22;1383;48.362;10.908;2023-03-23T16:36:58;17.10;30.80
2751;DHT22;1383;48.362;10.908;2023-03-23T16:39:25;17.10;30.80
2751;DHT22;1383;48.362;10.908;2023-03-23T16:41:52;17.00;31.00
2751;DHT22;1383;48.362;10.908;2023-03-23T16:44:19;17.00;31.10
2751;DHT22;1383;48.362;10.908;2023-03-23T16:46:45;17.00;30.90
2751;DHT22;1383;48.362;10.908;2023-03-23T16:49:12;17.00;30.90
2751;DHT22;1383;48.362;10.908;2023-03-23T16:51:39;17.10;31.00
2751;DHT22;1383;48.362;10.908;2023-03-23T16:54:08;17.00;31.00
2751;DHT22;1383;48.362;10.908;2023-03-23T16:56:35;17.00;30.90
2751;DHT22;1383;48.362;10.908;2023-03-23T16:59:02;16.90;31.00
2751;DHT22;1383;48.362;10.908;2023-03-23T17:01:29;16.90;31.10
2751;DHT22;1383;48.362;10.908;2023-03-23T17:03:56;16.90;31.00
2751;DHT22;1383;48.362;10.908;2023-03-23T17:06:23;16.90;31.20
2751;DHT22;1383;48.362;10.908;2023-03-23T17:08:51;16.90;31.10
2751;DHT22;1383;48.362;10.908;2023-03-23T17:11:17;16.90;31.00
2751;DHT22;1383;48.362;10.908;2023-03-23T17:13:44;16.90;31.00
2751;DHT22;1383;48.362;10.908;2023-03-23T17:16:11;16.90;30.90
2751;DHT22;1383;48.362;10.908;2023-03-23T17:18:38;16.90;31.00
2751;DHT22;1383;48.362;10.908;2023-03-23T17:21:05;16.90;31.10
2751;DHT22;1383;48.362;10.908;2023-03-23T17:23:32;16.90;31.40
2751;DHT22;1383;48.362;10.908;2023-03-23T17:25:59;16.90;32.00
2751;DHT22;1383;48.362;10.908;2023-03-23T17:28:26;16.90;32.40
2751;DHT22;1383;48.362;10.908;2023-03-23T17:30:53;16.80;32.30
2751;DHT22;1383;48.362;10.908;2023-03-23T17:33:20;16.80;32.20
2751;DHT22;1383;48.362;10.908;2023-03-23T17:35:47;16.80;32.10
2751;DHT22;1383;48.362;10.908;2023-03-23T17:38:17;16.80;32.00
2751;DHT22;1383;48.362;10.908;2023-03-23T17:40:44;16.70;32.10
2751;DHT22;1383;48.362;10.908;2023-03-23T17:43:11;16.70;32.30
2751;DHT22;1383;48.362;10.908;2023-03-23T17:45:39;16.80;32.40
2751;DHT22;1383;48.362;10.908;2023-03-23T17:48:07;16.80;32.30
2751;DHT22;1383;48.362;10.908;2023-03-23T17:50:34;16.70;32.20
2751;DHT22;1383;48.362;10.908;2023-03-23T17:53:02;16.70;32.30
2751;DHT22;1383;48.362;10.908;2023-03-23T17:55:29;16.70;33.10
2751;DHT22;1383;48.362;10.908;2023-03-23T17:57:56;16.70;32.60
2751;DHT22;1383;48.362;10.908;2023-03-23T18:00:22;16.70;32.50
2751;DHT22;1383;48.362;10.908;2023-03-23T18:02:49;16.60;32.50